Time;durP1;ratioP1;P1;durP2;ratioP2;P2;SDS_P1;SDS_P2;PMS_P1;PMS_P2;Temp;Humidity;BMP_temperature;BMP_pressure;BME280_temperature;BME280_humidity;BME280_pressure;Samples;Min_cycle;Max_cycle;Signal;HPM_P1;HPM_P2
2022/09/24 00:00:52;;;;;;;0.90;0.90;;;13.60;99.90;;;;;;5033305;28;20205;-67
2022/09/24 00:03:19;;;;;;;1.20;0.97;;;13.60;99.90;;;;;;5032961;28;20243;-67
2022/09/24 00:05:47;;;;;;;0.90;0.90;;;13.60;99.90;;;;;;5032097;28;20567;-66
2022/09/24 00:08:17;;;;;;;1.00;1.00;;;13.60;99.90;;;;;;5031346;28;20220;-65
2022/09/24 00:10:46;;;;;;;1.00;1.00;;;13.70;99.90;;;;;;5035110;28;20298;-67
2022/09/24 00:13:15;;;;;;;0.80;0.80;;;13.60;99.90;;;;;;5034266;28;20233;-66
2022/09/24 00:15:44;;;;;;;0.73;0.73;;;13.60;99.90;;;;;;5034313;28;20209;-67
2022/09/24 00:18:13;;;;;;;2.37;1.10;;;13.70;99.90;;;;;;5033251;28;20219;-66
2022/09/24 00:20:40;;;;;;;1.02;1.02;;;13.60;99.90;;;;;;5021211;28;20648;-66
2022/09/24 00:23:08;;;;;;;0.90;0.90;;;13.60;99.90;;;;;;5028913;28;20221;-65
2022/09/24 00:28:26;;;;;;;0.97;0.97;;;13.70;99.90;;;;;;5023557;28;20204;-66
2022/09/24 00:30:53;;;;;;;1.00;1.00;;;13.60;99.90;;;;;;5023453;28;20209;-67
2022/09/24 00:33:20;;;;;;;0.97;0.93;;;13.60;99.90;;;;;;5013631;28;20228;-65
2022/09/24 00:35:47;;;;;;;1.00;1.00;;;13.60;99.90;;;;;;5024541;28;20196;-67
2022/09/24 00:38:14;;;;;;;0.77;0.77;;;13.60;99.90;;;;;;5033132;28;20208;-67
2022/09/24 00:40:42;;;;;;;0.80;0.80;;;13.70;99.90;;;;;;5032964;28;20216;-66
2022/09/24 00:43:26;;;;;;;0.80;0.80;;;13.60;99.90;;;;;;5032310;28;20234;-65
2022/09/24 00:45:55;;;;;;;0.80;0.80;;;13.60;99.90;;;;;;5017430;28;20211;-66
2022/09/24 00:48:22;;;;;;;1.23;0.90;;;13.60;99.90;;;;;;5038537;28;20263;-66
2022/09/24 00:50:49;;;;;;;1.00;1.00;;;13.60;99.90;;;;;;5024172;28;20204;-66
2022/09/24 00:53:19;;;;;;;1.17;1.17;;;13.60;99.90;;;;;;5039814;28;20224;-67
2022/09/24 00:55:53;;;;;;;0.80;0.80;;;13.50;99.90;;;;;;5041272;28;20295;-66
2022/09/24 00:58:21;;;;;;;0.90;0.90;;;13.50;99.90;;;;;;5037197;28;20231;-65
2022/09/24 01:00:51;;;;;;;1.00;0.90;;;13.40;99.90;;;;;;5031623;28;20211;-68
2022/09/24 01:03:21;;;;;;;0.80;0.80;;;13.40;99.90;;;;;;5031969;28;20605;-66
2022/09/24 01:05:48;;;;;;;0.90;0.90;;;13.40;99.90;;;;;;5033376;28;20211;-66
2022/09/24 01:08:16;;;;;;;0.80;0.80;;;13.40;99.90;;;;;;5033470;28;20205;-66
2022/09/24 01:10:58;;;;;;;0.90;0.90;;;13.30;99.90;;;;;;5031808;28;20201;-68
2022/09/24 01:13:55;;;;;;;0.97;0.97;;;13.30;99.90;;;;;;5031469;28;20229;-66
2022/09/24 01:16:30;;;;;;;0.70;0.70;;;13.30;99.90;;;;;;4997272;28;20707;-67
2022/09/24 01:19:10;;;;;;;0.83;0.83;;;13.20;99.90;;;;;;5006734;28;20838;-66
2022/09/24 01:21:45;;;;;;;1.00;1.00;;;13.30;99.90;;;;;;5001402;28;20668;-67
2022/09/24 01:24:39;;;;;;;0.80;0.80;;;13.30;99.90;;;;;;5010076;28;20224;-66
2022/09/24 01:27:14;;;;;;;1.13;0.90;;;13.20;99.90;;;;;;4996752;28;20205;-68
2022/09/24 01:29:52;;;;;;;0.90;0.90;;;13.30;99.90;;;;;;5014766;28;20205;-65
2022/09/24 01:32:28;;;;;;;0.90;0.90;;;13.20;99.90;;;;;;5004244;28;20209;-66
2022/09/24 01:34:59;;;;;;;0.70;0.70;;;13.20;99.90;;;;;;4994339;28;20208;-65
2022/09/24 01:37:29;;;;;;;0.90;0.90;;;13.20;99.90;;;;;;4995137;28;20739;-66
2022/09/24 01:39:58;;;;;;;0.87;0.87;;;13.20;99.90;;;;;;5000033;28;20204;-67
2022/09/24 01:42:29;;;;;;;0.90;0.90;;;13.30;99.90;;;;;;5006924;28;20210;-65
2022/09/24 01:44:58;;;;;;;0.80;0.80;;;13.40;99.90;;;;;;5003864;28;20207;-65
2022/09/24 01:47:30;;;;;;;0.60;0.60;;;13.40;99.90;;;;;;5004364;28;20272;-65
2022/09/24 01:49:57;;;;;;;0.80;0.80;;;13.50;99.90;;;;;;5002461;28;20344;-66
2022/09/24 01:52:31;;;;;;;1.00;1.00;;;13.50;99.90;;;;;;5005675;28;20202;-66
2022/09/24 01:55:01;;;;;;;0.80;0.80;;;13.60;99.90;;;;;;5011324;28;20200;-67
2022/09/24 01:57:31;;;;;;;1.00;1.00;;;13.60;99.90;;;;;;5029910;28;20236;-66
2022/09/24 02:00:04;;;;;;;0.80;0.80;;;13.60;99.90;;;;;;5030143;28;20218;-66
2022/09/24 02:02:36;;;;;;;0.97;0.97;;;13.60;99.90;;;;;;5025101;28;20208;-67
2022/09/24 02:05:08;;;;;;;0.80;0.80;;;13.50;99.90;;;;;;5030876;28;20204;-66
2022/09/24 02:07:39;;;;;;;0.70;0.70;;;13.50;99.90;;;;;;5026762;28;20201;-66
2022/09/24 02:10:09;;;;;;;0.87;0.87;;;13.60;99.90;;;;;;5031437;28;20200;-65
2022/09/24 02:12:41;;;;;;;0.83;0.83;;;13.60;99.90;;;;;;5028522;28;20236;-67
2022/09/24 02:15:13;;;;;;;1.03;1.03;;;13.60;99.90;;;;;;5032719;28;20261;-67
2022/09/24 02:17:44;;;;;;;0.80;0.80;;;13.60;99.90;;;;;;5028442;28;20278;-66
2022/09/24 02:20:14;;;;;;;0.90;0.90;;;13.70;99.90;;;;;;5028053;28;20204;-66
2022/09/24 02:22:43;;;;;;;1.20;0.97;;;13.70;99.90;;;;;;5030105;28;20224;-67
2022/09/24 02:25:15;;;;;;;0.80;0.80;;;13.60;99.90;;;;;;5029031;28;20205;-65
2022/09/24 02:27:42;;;;;;;1.10;1.10;;;13.60;99.90;;;;;;5031322;28;20212;-67
2022/09/24 02:30:11;;;;;;;1.07;1.07;;;13.50;99.90;;;;;;5029478;28;20200;-67
2022/09/24 02:32:40;;;;;;;0.80;0.80;;;13.50;99.90;;;;;;5032316;28;20224;-65
2022/09/24 02:35:10;;;;;;;0.90;0.90;;;13.40;99.90;;;;;;5024666;28;20201;-67
2022/09/24 02:37:38;;;;;;;1.00;1.00;;;13.40;99.90;;;;;;5031397;28;20255;-66
2022/09/24 02:40:09;;;;;;;0.90;0.90;;;13.40;99.90;;;;;;5027497;28;20613;-67
2022/09/24 02:42:37;;;;;;;0.90;0.90;;;13.40;99.90;;;;;;5033062;28;20239;-66
2022/09/24 02:45:04;;;;;;;1.03;1.03;;;13.40;99.90;;;;;;5028439;28;20208;-67
2022/09/24 02:47:33;;;;;;;1.10;1.10;;;13.30;99.90;;;;;;5025008;28;20203;-66
2022/09/24 02:50:00;;;;;;;1.10;1.10;;;13.40;99.90;;;;;;5032211;28;20663;-67
2022/09/24 02:52:27;;;;;;;1.40;1.20;;;13.30;99.90;;;;;;5024810;28;20209;-66
2022/09/24 02:54:54;;;;;;;1.40;1.30;;;13.20;99.90;;;;;;5038616;28;20204;-65
2022/09/24 02:57:20;;;;;;;0.90;0.90;;;13.30;99.90;;;;;;5026510;28;20217;-65
2022/09/24 02:59:47;;;;;;;1.10;1.10;;;13.20;99.90;;;;;;5025973;28;20215;-66
2022/09/24 03:02:14;;;;;;;1.00;1.00;;;13.30;99.90;;;;;;5029060;28;20582;-67
2022/09/24 03:04:43;;;;;;;1.97;1.20;;;13.30;99.90;;;;;;5030944;28;20280;-67
2022/09/24 03:07:10;;;;;;;1.00;1.00;;;13.30;99.90;;;;;;5039794;28;20201;-67
2022/09/24 03:09:37;;;;;;;1.10;1.10;;;13.30;99.90;;;;;;5031608;28;20221;-66
2022/09/24 03:12:04;;;;;;;0.97;0.97;;;13.40;99.90;;;;;;5035268;28;20565;-65
2022/09/24 03:14:30;;;;;;;0.93;0.93;;;13.40;99.90;;;;;;5026559;28;20227;-67
2022/09/24 03:16:57;;;;;;;1.10;1.10;;;13.40;99.90;;;;;;5026165;28;20220;-66
2022/09/24 03:19:24;;;;;;;1.37;0.90;;;13.50;99.90;;;;;;5026739;28;20233;-67
2022/09/24 03:21:52;;;;;;;0.80;0.80;;;13.50;99.90;;;;;;5040844;28;20264;-66
2022/09/24 03:24:19;;;;;;;0.97;0.97;;;13.60;99.90;;;;;;5030239;28;20253;-67
2022/09/24 03:26:46;;;;;;;0.90;0.90;;;13.60;99.90;;;;;;5028388;28;20197;-67
2022/09/24 03:29:13;;;;;;;1.10;1.10;;;13.60;99.90;;;;;;5032192;28;20212;-66
2022/09/24 03:31:39;;;;;;;0.83;0.83;;;13.70;99.90;;;;;;5045005;28;20346;-68
2022/09/24 03:34:05;;;;;;;1.10;1.00;;;13.70;99.90;;;;;;5044814;28;20243;-67
2022/09/24 03:36:32;;;;;;;0.90;0.90;;;13.70;99.90;;;;;;5040195;28;20292;-65
2022/09/24 03:39:01;;;;;;;1.00;1.00;;;13.70;99.90;;;;;;5038273;28;20303;-67
2022/09/24 03:41:28;;;;;;;0.90;0.90;;;13.60;99.90;;;;;;5032349;28;20582;-66
2022/09/24 03:43:55;;;;;;;0.87;0.87;;;13.70;99.90;;;;;;5045648;28;20266;-68
2022/09/24 03:46:28;;;;;;;0.90;0.90;;;13.70;99.90;;;;;;5030746;28;20204;-67
2022/09/24 03:48:58;;;;;;;0.90;0.90;;;13.70;99.90;;;;;;5024802;28;20197;-66
2022/09/24 03:51:25;;;;;;;0.90;0.90;;;13.60;99.90;;;;;;5030256;28;20266;-65
2022/09/24 03:53:52;;;;;;;0.90;0.90;;;13.60;99.90;;;;;;5026877;28;20239;-65
2022/09/24 03:56:20;;;;;;;1.00;1.00;;;13.60;99.90;;;;;;5031188;28;20201;-66
2022/09/24 03:58:47;;;;;;;1.00;1.00;;;13.60;99.90;;;;;;5024739;28;20224;-67
2022/09/24 04:01:19;;;;;;;1.17;1.00;;;13.70;99.90;;;;;;5026744;28;20204;-66
2022/09/24 04:03:46;;;;;;;1.03;1.03;;;13.70;99.90;;;;;;5026665;28;20253;-66
2022/09/24 04:06:14;;;;;;;1.37;0.90;;;13.60;99.90;;;;;;5027834;28;20210;-66
2022/09/24 04:08:41;;;;;;;0.97;0.97;;;13.60;99.90;;;;;;5029575;28;20211;-66
2022/09/24 04:11:07;;;;;;;0.90;0.90;;;13.60;99.90;;;;;;5027978;28;20211;-67
2022/09/24 04:13:35;;;;;;;1.00;1.00;;;13.60;99.90;;;;;;5030277;28;20297;-67
2022/09/24 04:16:03;;;;;;;0.90;0.90;;;13.60;99.90;;;;;;5024891;28;20255;-67
2022/09/24 04:18:30;;;;;;;1.00;1.00;;;13.60;99.90;;;;;;5032033;28;20282;-66
2022/09/24 04:20:59;;;;;;;0.90;0.90;;;13.60;99.90;;;;;;5027350;28;20208;-67
2022/09/24 04:23:29;;;;;;;1.50;1.10;;;13.70;99.90;;;;;;5030874;28;20224;-66
2022/09/24 04:25:56;;;;;;;1.00;1.00;;;13.70;99.90;;;;;;5029076;28;20551;-65
2022/09/24 04:28:24;;;;;;;0.97;0.97;;;13.70;99.90;;;;;;5031274;28;20604;-67
2022/09/24 04:30:52;;;;;;;1.07;1.07;;;13.60;99.90;;;;;;5030152;28;20284;-66
2022/09/24 04:33:19;;;;;;;0.93;0.93;;;13.70;99.90;;;;;;5021757;28;20704;-66
2022/09/24 04:35:45;;;;;;;0.90;0.90;;;13.70;99.90;;;;;;5030467;28;20292;-67
2022/09/24 04:38:13;;;;;;;0.80;0.80;;;13.70;99.90;;;;;;5022647;28;20240;-67
2022/09/24 04:40:40;;;;;;;0.90;0.90;;;13.80;99.90;;;;;;5021631;28;20769;-66
2022/09/24 04:43:07;;;;;;;0.90;0.90;;;13.80;99.90;;;;;;5025438;28;20226;-67
2022/09/24 04:45:34;;;;;;;0.80;0.80;;;13.80;99.90;;;;;;5025661;28;20400;-66
2022/09/24 04:48:02;;;;;;;1.00;1.00;;;13.80;99.90;;;;;;5025702;28;20201;-66
2022/09/24 04:50:32;;;;;;;1.20;1.10;;;13.80;99.90;;;;;;5027504;28;20300;-65
2022/09/24 04:52:59;;;;;;;1.00;1.00;;;13.90;99.90;;;;;;5026326;28;20220;-66
2022/09/24 04:55:26;;;;;;;0.97;0.97;;;13.90;99.90;;;;;;5029013;28;20197;-67
2022/09/24 04:57:56;;;;;;;1.00;1.00;;;13.90;99.90;;;;;;5027239;28;20252;-67
2022/09/24 05:00:23;;;;;;;1.00;1.00;;;14.00;99.90;;;;;;5022263;28;20215;-66
2022/09/24 05:02:57;;;;;;;1.00;1.00;;;14.00;99.90;;;;;;5019473;28;20315;-65
2022/09/24 05:05:25;;;;;;;0.83;0.83;;;14.00;99.90;;;;;;5024912;28;20217;-66
2022/09/24 05:07:55;;;;;;;0.90;0.90;;;14.10;99.90;;;;;;5014329;28;20235;-67
2022/09/24 05:10:22;;;;;;;0.90;0.90;;;14.10;99.90;;;;;;5025832;28;20205;-66
2022/09/24 05:12:49;;;;;;;0.90;0.90;;;14.20;99.90;;;;;;5029949;28;20699;-66
2022/09/24 05:15:18;;;;;;;1.10;1.10;;;14.20;99.90;;;;;;5027025;28;20208;-66
2022/09/24 05:17:45;;;;;;;1.00;1.00;;;14.20;99.90;;;;;;5021937;28;20228;-66
2022/09/24 05:20:12;;;;;;;0.90;0.90;;;14.20;99.90;;;;;;5030075;28;20215;-67
2022/09/24 05:22:43;;;;;;;0.97;0.93;;;14.20;99.90;;;;;;5025182;28;20233;-67
2022/09/24 05:25:11;;;;;;;0.90;0.90;;;14.30;99.90;;;;;;5030816;28;20204;-65
2022/09/24 05:27:37;;;;;;;1.10;1.10;;;14.40;99.90;;;;;;5026310;28;20208;-67
2022/09/24 05:30:05;;;;;;;0.80;0.80;;;14.40;99.90;;;;;;5029603;28;20200;-67
2022/09/24 05:32:32;;;;;;;1.13;1.10;;;14.40;99.90;;;;;;5025464;28;20216;-67
2022/09/24 05:34:59;;;;;;;0.80;0.80;;;14.50;99.90;;;;;;5017261;28;20200;-66
2022/09/24 05:37:26;;;;;;;1.00;1.00;;;14.50;99.90;;;;;;5027002;28;20220;-65
2022/09/24 05:39:56;;;;;;;1.00;1.00;;;14.50;99.90;;;;;;5024036;28;20680;-63
2022/09/24 05:42:23;;;;;;;0.83;0.83;;;14.60;99.90;;;;;;5028942;28;20263;-63
2022/09/24 05:44:50;;;;;;;1.20;1.10;;;14.60;99.90;;;;;;5022570;28;20284;-63
2022/09/24 05:47:16;;;;;;;1.30;1.30;;;14.60;99.90;;;;;;5022111;28;20209;-63
2022/09/24 05:49:43;;;;;;;1.00;1.00;;;14.70;99.90;;;;;;5030459;28;20604;-63
2022/09/24 05:52:10;;;;;;;1.03;1.03;;;14.70;99.90;;;;;;5023802;28;20216;-64
2022/09/24 05:54:37;;;;;;;1.00;1.00;;;14.70;99.90;;;;;;5029352;28;20260;-64
2022/09/24 05:57:05;;;;;;;1.10;1.10;;;14.80;99.90;;;;;;5025697;28;20213;-64
2022/09/24 05:59:32;;;;;;;1.20;1.20;;;14.80;99.90;;;;;;5028924;28;20224;-66
2022/09/24 06:01:59;;;;;;;1.20;1.20;;;14.80;99.90;;;;;;5028161;28;20214;-68
2022/09/24 06:04:26;;;;;;;1.20;1.20;;;14.80;99.90;;;;;;5020804;28;20232;-66
2022/09/24 06:06:53;;;;;;;1.20;1.20;;;14.80;99.90;;;;;;5030527;28;20239;-66
2022/09/24 06:09:20;;;;;;;1.40;1.30;;;14.80;99.90;;;;;;5021423;28;20211;-66
2022/09/24 06:11:49;;;;;;;1.17;1.17;;;14.80;99.90;;;;;;5023008;28;20204;-65
2022/09/24 06:14:17;;;;;;;1.10;1.10;;;15.00;99.90;;;;;;5023696;28;20312;-67
2022/09/24 06:16:44;;;;;;;1.47;1.40;;;15.00;99.90;;;;;;5023017;28;20305;-65
2022/09/24 06:19:11;;;;;;;1.00;1.00;;;14.90;99.90;;;;;;5025965;28;20229;-65
2022/09/24 06:21:38;;;;;;;1.10;1.10;;;14.90;99.90;;;;;;5022560;28;20293;-66
2022/09/24 06:24:05;;;;;;;1.00;1.00;;;14.90;99.90;;;;;;5028250;28;20280;-65
2022/09/24 06:26:32;;;;;;;1.13;1.13;;;15.00;99.90;;;;;;5022248;28;20212;-66
2022/09/24 06:28:59;;;;;;;1.00;1.00;;;15.00;99.90;;;;;;5030317;28;20232;-66
2022/09/24 06:31:27;;;;;;;0.80;0.80;;;15.00;99.90;;;;;;5022489;28;20629;-67
2022/09/24 06:33:54;;;;;;;1.10;1.10;;;15.20;99.90;;;;;;5019829;28;20674;-67
2022/09/24 06:36:21;;;;;;;1.00;1.00;;;15.00;99.90;;;;;;5023190;28;20208;-67
2022/09/24 06:38:50;;;;;;;1.00;1.00;;;15.10;99.90;;;;;;5027963;28;20221;-67
2022/09/24 06:41:18;;;;;;;0.97;0.97;;;15.10;99.90;;;;;;5030120;28;20204;-67
2022/09/24 06:43:44;;;;;;;1.03;1.03;;;15.10;99.90;;;;;;5029238;28;20229;-68
2022/09/24 06:46:13;;;;;;;0.90;0.90;;;15.10;99.90;;;;;;5031199;28;20208;-66
2022/09/24 06:48:41;;;;;;;1.00;1.00;;;15.20;99.90;;;;;;5027945;28;20197;-66
2022/09/24 06:51:08;;;;;;;1.10;1.10;;;15.30;99.90;;;;;;5032815;28;20209;-67
2022/09/24 06:53:35;;;;;;;1.00;0.90;;;15.30;99.90;;;;;;5028029;28;20225;-69
2022/09/24 06:56:03;;;;;;;1.10;1.00;;;15.30;99.90;;;;;;5032429;28;20201;-67
2022/09/24 06:58:30;;;;;;;0.80;0.80;;;15.40;99.90;;;;;;5017746;28;20217;-66
2022/09/24 07:01:00;;;;;;;0.90;0.90;;;15.40;99.90;;;;;;5018512;28;20288;-68
2022/09/24 07:03:28;;;;;;;1.00;1.00;;;15.50;99.90;;;;;;5024174;28;20229;-66
2022/09/24 07:06:00;;;;;;;1.13;1.10;;;15.50;99.90;;;;;;5023809;28;20212;-68
2022/09/24 07:08:27;;;;;;;1.23;1.13;;;15.50;99.90;;;;;;5019960;28;20563;-65
2022/09/24 07:10:54;;;;;;;1.20;1.20;;;15.60;99.90;;;;;;5017685;28;20202;-65
2022/09/24 07:13:21;;;;;;;1.30;1.20;;;15.60;99.90;;;;;;5016968;28;20236;-66
2022/09/24 07:15:50;;;;;;;1.07;1.07;;;15.60;99.90;;;;;;5021008;28;20207;-66
2022/09/24 07:18:17;;;;;;;0.90;0.90;;;15.50;99.90;;;;;;5019501;28;20217;-66
2022/09/24 07:20:44;;;;;;;0.90;0.90;;;15.60;99.90;;;;;;5016833;28;20207;-66
2022/09/24 07:23:12;;;;;;;0.80;0.80;;;15.50;99.90;;;;;;5020186;28;20220;-67
2022/09/24 07:25:39;;;;;;;0.87;0.87;;;15.40;99.90;;;;;;5020086;28;20208;-65
2022/09/24 07:28:09;;;;;;;0.90;0.90;;;15.40;99.90;;;;;;5020729;28;20284;-67
2022/09/24 07:30:36;;;;;;;0.90;0.90;;;15.40;99.90;;;;;;5024538;28;20205;-67
2022/09/24 07:33:04;;;;;;;0.80;0.80;;;15.50;99.90;;;;;;5022118;28;20232;-67
2022/09/24 07:35:31;;;;;;;0.90;0.90;;;15.60;99.90;;;;;;5034088;28;20220;-66
2022/09/24 07:37:59;;;;;;;0.90;0.90;;;15.60;99.90;;;;;;5041173;28;20211;-67
2022/09/24 07:40:29;;;;;;;1.00;1.00;;;15.60;99.90;;;;;;5037463;28;20678;-67
2022/09/24 07:42:55;;;;;;;1.07;1.07;;;15.70;99.90;;;;;;5019938;28;20307;-68
2022/09/24 07:45:23;;;;;;;1.10;1.10;;;15.80;99.90;;;;;;5014809;28;20289;-67
2022/09/24 07:47:58;;;;;;;0.97;0.97;;;15.60;99.90;;;;;;5025625;28;20293;-66
2022/09/24 07:50:25;;;;;;;0.97;0.97;;;15.60;99.90;;;;;;5027307;28;20185;-66
2022/09/24 07:52:51;;;;;;;1.10;1.10;;;15.60;99.90;;;;;;5027250;28;20307;-67
2022/09/24 07:55:18;;;;;;;1.00;1.00;;;15.60;99.90;;;;;;5029188;28;20671;-67
2022/09/24 07:57:50;;;;;;;0.90;0.90;;;15.50;99.90;;;;;;5026543;28;20205;-67
2022/09/24 08:00:18;;;;;;;1.10;1.10;;;15.50;99.90;;;;;;5032084;28;20205;-67
2022/09/24 08:02:46;;;;;;;0.93;0.93;;;15.50;99.90;;;;;;5025636;28;20225;-66
2022/09/24 08:05:14;;;;;;;1.00;1.00;;;15.50;99.90;;;;;;5018890;28;20895;-67
2022/09/24 08:07:41;;;;;;;0.90;0.90;;;15.50;99.90;;;;;;5020162;28;20288;-66
2022/09/24 08:10:09;;;;;;;1.17;1.07;;;15.50;99.90;;;;;;5030245;28;20211;-66
2022/09/24 08:12:36;;;;;;;1.03;1.03;;;15.50;99.90;;;;;;5022119;28;20213;-67
2022/09/24 08:15:04;;;;;;;1.23;1.23;;;15.50;99.90;;;;;;5021701;28;20284;-67
2022/09/24 08:17:31;;;;;;;0.93;0.93;;;15.50;99.90;;;;;;5025964;28;20204;-66
2022/09/24 08:19:58;;;;;;;1.00;1.00;;;15.60;99.90;;;;;;5017782;28;20224;-66
2022/09/24 08:22:25;;;;;;;1.10;1.10;;;15.60;99.90;;;;;;5024147;28;20539;-66
2022/09/24 08:24:53;;;;;;;1.30;1.30;;;15.60;99.90;;;;;;5020555;28;20647;-68
2022/09/24 08:27:20;;;;;;;1.23;1.23;;;15.60;99.90;;;;;;5019288;28;20221;-67
2022/09/24 08:29:47;;;;;;;1.20;1.20;;;15.70;99.90;;;;;;5021021;28;20212;-65
2022/09/24 08:32:16;;;;;;;1.20;1.20;;;15.70;99.90;;;;;;5017780;28;20298;-66
2022/09/24 08:34:44;;;;;;;1.27;1.27;;;15.80;99.90;;;;;;5030916;28;20221;-66
2022/09/24 08:37:11;;;;;;;1.00;1.00;;;15.90;99.90;;;;;;5032409;28;20236;-64
2022/09/24 08:39:37;;;;;;;0.93;0.93;;;15.90;99.90;;;;;;5032714;28;20671;-65
2022/09/24 08:42:06;;;;;;;0.80;0.80;;;15.90;99.90;;;;;;5024769;28;20205;-65
2022/09/24 08:47:37;;;;;;;0.80;0.80;;;16.00;99.90;;;;;;5013896;28;20767;-66
2022/09/24 08:50:14;;;;;;;1.00;1.00;;;16.00;99.90;;;;;;5019641;28;20625;-66
2022/09/24 08:53:08;;;;;;;0.77;0.77;;;16.10;99.90;;;;;;5024401;28;20577;-65
2022/09/24 08:55:39;;;;;;;1.00;1.00;;;16.00;99.90;;;;;;5027982;28;20205;-66
2022/09/24 08:58:22;;;;;;;1.00;1.00;;;16.00;99.90;;;;;;5026863;28;20207;-65
2022/09/24 09:00:55;;;;;;;0.90;0.90;;;16.10;99.90;;;;;;5021139;28;20244;-66
2022/09/24 09:03:30;;;;;;;1.20;1.20;;;16.00;99.90;;;;;;5027480;28;20235;-66
2022/09/24 09:06:03;;;;;;;1.33;1.33;;;16.00;99.90;;;;;;5015444;28;20659;-66
2022/09/24 09:08:37;;;;;;;1.30;1.30;;;16.10;99.90;;;;;;5028565;28;20287;-65
2022/09/24 09:11:07;;;;;;;1.20;1.20;;;16.10;99.90;;;;;;5018893;28;20204;-65
2022/09/24 09:13:39;;;;;;;1.90;1.80;;;16.10;99.90;;;;;;5020554;28;20240;-65
2022/09/24 09:16:12;;;;;;;2.10;2.00;;;16.20;99.90;;;;;;5026666;28;20197;-66
2022/09/24 09:18:43;;;;;;;2.20;2.10;;;16.30;99.90;;;;;;5030013;28;20212;-66
2022/09/24 09:21:16;;;;;;;2.40;2.30;;;16.30;99.90;;;;;;5022173;28;20209;-67
2022/09/24 09:23:47;;;;;;;1.80;1.70;;;16.50;99.90;;;;;;5028372;28;20232;-66
2022/09/24 09:26:14;;;;;;;1.83;1.73;;;16.50;99.90;;;;;;5019028;28;20213;-67
2022/09/24 09:28:40;;;;;;;1.80;1.70;;;16.60;99.90;;;;;;5029212;28;20201;-65
2022/09/24 09:31:23;;;;;;;1.30;1.30;;;16.70;99.90;;;;;;5024792;28;20586;-67
2022/09/24 09:34:07;;;;;;;1.40;1.40;;;16.80;99.90;;;;;;5031792;28;20227;-67
2022/09/24 09:36:44;;;;;;;1.60;1.50;;;16.90;99.90;;;;;;5021770;28;20258;-66
2022/09/24 09:39:22;;;;;;;1.03;1.03;;;17.00;99.90;;;;;;5024036;28;20315;-66
2022/09/24 09:41:54;;;;;;;0.80;0.80;;;17.10;99.90;;;;;;5027168;28;20200;-66
2022/09/24 09:44:25;;;;;;;0.80;0.80;;;17.20;99.90;;;;;;5024677;28;20702;-66
2022/09/24 09:46:57;;;;;;;0.70;0.70;;;17.30;99.90;;;;;;5023387;28;20297;-65
2022/09/24 09:49:31;;;;;;;1.33;0.80;;;17.30;99.90;;;;;;5026195;28;20193;-66
2022/09/24 09:52:02;;;;;;;0.60;0.60;;;17.30;99.90;;;;;;5018812;28;20284;-65
2022/09/24 09:54:37;;;;;;;0.70;0.70;;;17.30;99.90;;;;;;5027266;28;20236;-66
2022/09/24 09:57:05;;;;;;;0.80;0.80;;;17.30;99.90;;;;;;5024887;28;20216;-66
2022/09/24 09:59:34;;;;;;;0.60;0.60;;;17.20;99.90;;;;;;5021228;28;20240;-65
2022/09/24 10:02:01;;;;;;;0.80;0.80;;;17.20;99.90;;;;;;5006047;28;20296;-66
2022/09/24 10:04:38;;;;;;;0.90;0.90;;;17.30;99.90;;;;;;5019593;28;20235;-66
2022/09/24 10:07:07;;;;;;;0.70;0.70;;;17.30;99.90;;;;;;5025008;28;20312;-67
2022/09/24 10:09:34;;;;;;;0.70;0.70;;;17.30;99.90;;;;;;5020161;28;20269;-65
2022/09/24 10:12:16;;;;;;;0.80;0.80;;;17.30;99.90;;;;;;5028652;28;20287;-66
2022/09/24 10:14:44;;;;;;;1.00;1.00;;;17.40;99.90;;;;;;5021123;28;20233;-65
2022/09/24 10:17:15;;;;;;;0.90;0.90;;;17.40;99.90;;;;;;5028828;28;20242;-65
2022/09/24 10:19:46;;;;;;;1.10;1.00;;;17.50;99.90;;;;;;5026120;28;20228;-65
2022/09/24 10:22:19;;;;;;;0.90;0.90;;;17.60;99.90;;;;;;5025760;28;20224;-65
2022/09/24 10:24:47;;;;;;;0.60;0.60;;;17.70;99.90;;;;;;5028123;28;20211;-66
2022/09/24 10:27:21;;;;;;;0.60;0.60;;;17.60;99.90;;;;;;5026916;28;20208;-66
2022/09/24 10:32:36;;;;;;;0.80;0.80;;;17.70;99.90;;;;;;5027134;28;20342;-66
2022/09/24 10:35:20;;;;;;;0.70;0.70;;;17.70;99.90;;;;;;5030627;28;20908;-66
2022/09/24 10:37:50;;;;;;;0.60;0.60;;;17.70;99.90;;;;;;5025863;28;20204;-65
2022/09/24 10:40:22;;;;;;;0.70;0.70;;;17.70;99.90;;;;;;5026849;28;20217;-65
2022/09/24 10:42:55;;;;;;;0.90;0.90;;;17.70;99.90;;;;;;5027158;28;20305;-65
2022/09/24 10:45:25;;;;;;;0.80;0.80;;;17.90;99.90;;;;;;5023669;28;20208;-66
2022/09/24 10:47:57;;;;;;;0.80;0.80;;;18.00;99.90;;;;;;5012797;28;20205;-66
2022/09/24 10:50:30;;;;;;;0.80;0.80;;;18.10;99.90;;;;;;5032973;28;20546;-66
2022/09/24 10:53:00;;;;;;;0.70;0.70;;;18.10;99.90;;;;;;5020089;28;20256;-66
2022/09/24 10:55:39;;;;;;;0.80;0.80;;;18.00;99.90;;;;;;5032207;28;20201;-67
2022/09/24 10:58:24;;;;;;;0.90;0.90;;;18.00;99.90;;;;;;5035473;28;20202;-66
2022/09/24 11:01:05;;;;;;;1.10;1.10;;;18.00;99.90;;;;;;5031956;28;20216;-65
2022/09/24 11:03:46;;;;;;;0.93;0.93;;;17.90;99.90;;;;;;5027072;28;20228;-66
2022/09/24 11:06:24;;;;;;;0.80;0.80;;;17.90;99.90;;;;;;5025908;28;20215;-66
2022/09/24 11:09:01;;;;;;;0.77;0.77;;;17.90;99.90;;;;;;5026319;28;20259;-66
2022/09/24 11:11:39;;;;;;;0.70;0.70;;;17.90;99.90;;;;;;5028647;28;20211;-66
2022/09/24 11:14:19;;;;;;;1.00;1.00;;;17.90;99.90;;;;;;5025424;28;20295;-66
2022/09/24 11:17:11;;;;;;;0.70;0.70;;;18.00;99.90;;;;;;5031804;28;20254;-66
2022/09/24 11:20:10;;;;;;;0.70;0.70;;;17.90;99.90;;;;;;5024865;28;20235;-66
2022/09/24 11:22:53;;;;;;;1.00;1.00;;;18.00;99.90;;;;;;5013566;28;20209;-66
2022/09/24 11:25:32;;;;;;;0.80;0.80;;;18.00;99.90;;;;;;5028328;28;20262;-66
2022/09/24 11:28:31;;;;;;;0.90;0.90;;;18.10;99.90;;;;;;5025033;28;20216;-66
2022/09/24 11:31:07;;;;;;;0.80;0.80;;;18.10;99.90;;;;;;5026842;28;20196;-66
2022/09/24 11:34:03;;;;;;;0.80;0.80;;;18.20;99.90;;;;;;5029349;28;20220;-65
2022/09/24 11:36:55;;;;;;;0.77;0.77;;;18.20;99.90;;;;;;5024890;28;20205;-65
2022/09/24 11:39:39;;;;;;;0.83;0.83;;;18.20;99.90;;;;;;5023524;28;20510;-67
2022/09/24 11:42:15;;;;;;;0.80;0.80;;;18.30;99.90;;;;;;5015238;28;20213;-65
2022/09/24 11:45:01;;;;;;;0.80;0.80;;;18.30;99.90;;;;;;5023773;28;20750;-65
2022/09/24 11:47:47;;;;;;;0.80;0.80;;;18.40;99.90;;;;;;5017986;28;20213;-66
2022/09/24 11:50:23;;;;;;;0.50;0.50;;;18.50;99.90;;;;;;5026715;28;20616;-65
2022/09/24 11:52:55;;;;;;;0.90;0.90;;;18.50;99.90;;;;;;5013692;28;20220;-67
2022/09/24 11:55:30;;;;;;;0.67;0.67;;;18.50;99.90;;;;;;5027652;28;20209;-66
2022/09/24 11:58:06;;;;;;;0.63;0.63;;;18.50;99.90;;;;;;5019739;28;20203;-68
2022/09/24 12:00:39;;;;;;;0.83;0.83;;;18.50;99.90;;;;;;5029980;28;20209;-66
2022/09/24 12:03:14;;;;;;;0.60;0.60;;;18.60;99.90;;;;;;5028033;28;20232;-67
2022/09/24 12:05:45;;;;;;;0.60;0.60;;;18.60;99.90;;;;;;5024052;28;20206;-66
2022/09/24 12:08:18;;;;;;;0.60;0.60;;;18.60;99.90;;;;;;5029127;28;20205;-66
2022/09/24 12:10:51;;;;;;;0.70;0.70;;;18.60;99.90;;;;;;5019739;28;20216;-65
2022/09/24 12:13:26;;;;;;;0.70;0.70;;;18.70;99.90;;;;;;5015029;28;20229;-66
2022/09/24 12:15:56;;;;;;;0.70;0.70;;;18.70;99.90;;;;;;5012726;28;20550;-66
2022/09/24 12:18:26;;;;;;;0.80;0.80;;;18.80;99.90;;;;;;5016662;28;20205;-66
2022/09/24 12:21:00;;;;;;;0.80;0.80;;;18.90;99.90;;;;;;5012882;28;20229;-66
2022/09/24 12:23:30;;;;;;;1.00;1.00;;;19.00;99.90;;;;;;5012955;28;20252;-66
2022/09/24 12:26:04;;;;;;;0.73;0.73;;;19.10;99.90;;;;;;5012586;28;20231;-65
2022/09/24 12:34:23;;;;;;;0.80;0.80;;;19.80;99.90;;;;;;5011109;28;20274;-67
2022/09/24 12:36:59;;;;;;;0.70;0.70;;;20.00;99.90;;;;;;5013857;28;20287;-66
2022/09/24 12:39:30;;;;;;;0.90;0.90;;;20.10;99.90;;;;;;5011299;28;20209;-66
2022/09/24 12:42:02;;;;;;;1.00;1.00;;;20.10;99.90;;;;;;5012633;28;20208;-65
2022/09/24 12:44:36;;;;;;;1.00;1.00;;;20.20;99.90;;;;;;5012566;28;20566;-66
2022/09/24 12:47:03;;;;;;;0.90;0.90;;;20.40;99.90;;;;;;5021195;28;20712;-65
2022/09/24 12:49:35;;;;;;;0.83;0.83;;;20.30;99.90;;;;;;5016852;28;20201;-67
2022/09/24 12:52:04;;;;;;;0.70;0.70;;;20.50;99.90;;;;;;5022490;28;20197;-66
2022/09/24 12:54:33;;;;;;;0.80;0.80;;;20.70;99.90;;;;;;5020950;28;20232;-65
2022/09/24 12:57:13;;;;;;;0.80;0.80;;;20.80;99.90;;;;;;5023370;28;20207;-68
2022/09/24 12:59:48;;;;;;;0.70;0.70;;;20.80;99.90;;;;;;5026505;28;20216;-66
2022/09/24 13:02:17;;;;;;;0.70;0.70;;;20.70;99.90;;;;;;5020681;28;20201;-66
2022/09/24 13:04:50;;;;;;;0.80;0.80;;;20.80;99.90;;;;;;5021110;28;20228;-65
2022/09/24 13:07:31;;;;;;;0.60;0.60;;;21.00;99.90;;;;;;5022281;28;20263;-66
2022/09/24 13:10:11;;;;;;;0.87;0.87;;;21.10;99.90;;;;;;5010545;28;20673;-65
2022/09/24 13:12:39;;;;;;;0.70;0.70;;;21.10;99.90;;;;;;5022121;28;20209;-65
2022/09/24 13:15:09;;;;;;;0.70;0.70;;;21.00;99.90;;;;;;5025583;28;20204;-65
2022/09/24 13:17:37;;;;;;;0.67;0.67;;;20.80;99.90;;;;;;5023160;28;20255;-66
2022/09/24 13:20:07;;;;;;;0.73;0.73;;;20.80;99.90;;;;;;5025984;28;20244;-65